Time;durP1;ratioP1;P1;durP2;ratioP2;P2;SDS_P1;SDS_P2;PMS_P1;PMS_P2;Temp;Humidity;BMP_temperature;BMP_pressure;BME280_temperature;BME280_humidity;BME280_pressure;Samples;Min_cycle;Max_cycle;Signal;HPM_P1;HPM_P2
2021/12/13 00:01:50;;;;;;;;;;;;;;;3.17;100.00;101590.88;5013431;28;1312;-74
2021/12/13 00:04:19;;;;;;;;;;;;;;;3.20;100.00;101586.34;5013719;28;888;-74
2021/12/13 00:06:47;;;;;;;;;;;;;;;3.19;100.00;101590.81;5013226;28;1453;-74
2021/12/13 00:09:14;;;;;;;;;;;;;;;3.21;100.00;101590.75;5012916;28;1409;-74
2021/12/13 00:11:44;;;;;;;;;;;;;;;3.23;100.00;101595.13;4994002;28;1372;-74
2021/12/13 00:14:12;;;;;;;;;;;;;;;3.27;100.00;101594.09;4993840;28;975;-74
2021/12/13 00:16:40;;;;;;;;;;;;;;;3.27;100.00;101602.16;4993862;28;1914;-74
2021/12/13 00:19:08;;;;;;;;;;;;;;;3.25;100.00;101597.78;4977614;28;1435;-75
2021/12/13 00:21:38;;;;;;;;;;;;;;;3.26;100.00;101594.16;5013043;28;1294;-74
2021/12/13 00:24:08;;;;;;;;;;;;;;;3.24;100.00;101594.22;5013395;28;857;-75
2021/12/13 00:26:36;;;;;;;;;;;;;;;3.27;100.00;101596.78;5013315;28;1038;-74
2021/12/13 00:29:10;;;;;;;;;;;;;;;3.28;100.00;101597.69;5012545;28;1434;-74
2021/12/13 00:31:40;;;;;;;;;;;;;;;3.22;100.00;101593.41;5013121;28;1362;-74
2021/12/13 00:34:13;;;;;;;;;;;;;;;3.23;100.00;101599.66;5013208;28;900;-74
2021/12/13 00:36:42;;;;;;;;;;;;;;;3.25;100.00;101592.44;5012853;28;1963;-75
2021/12/13 00:39:12;;;;;;;;;;;;;;;3.28;100.00;101595.00;4995589;28;1395;-74
2021/12/13 00:41:38;;;;;;;;;;;;;;;3.31;100.00;101597.56;5004952;28;1570;-74
2021/12/13 00:44:06;;;;;;;;;;;;;;;3.31;100.00;101598.44;4993278;28;784;-75
2021/12/13 00:46:34;;;;;;;;;;;;;;;3.31;100.00;101602.91;4976074;28;974;-74
2021/12/13 00:49:01;;;;;;;;;;;;;;;3.27;100.00;101606.66;4996410;28;1411;-74
2021/12/13 00:51:28;;;;;;;;;;;;;;;3.28;100.00;101609.28;5012672;28;1373;-75
2021/12/13 00:53:57;;;;;;;;;;;;;;;3.29;100.00;101611.03;5012945;28;1135;-74
2021/12/13 00:56:42;;;;;;;;;;;;;;;3.29;100.00;101611.03;5012930;28;832;-74
2021/12/13 00:59:09;;;;;;;;;;;;;;;3.29;100.00;101620.91;5012043;28;1461;-74
2021/12/13 01:01:37;;;;;;;;;;;;;;;3.28;100.00;101621.84;5012474;28;1360;-74
2021/12/13 01:04:04;;;;;;;;;;;;;;;3.29;100.00;101628.97;5013783;28;792;-74
2021/12/13 01:06:58;;;;;;;;;;;;;;;3.33;100.00;101622.53;5012729;28;958;-75
2021/12/13 01:09:43;;;;;;;;;;;;;;;3.35;100.00;101640.34;5011817;28;1335;-75
2021/12/13 01:12:11;;;;;;;;;;;;;;;3.41;100.00;101644.59;5010952;28;1388;-75
2021/12/13 01:14:54;;;;;;;;;;;;;;;3.46;100.00;101649.78;5012537;28;974;-75
2021/12/13 01:17:35;;;;;;;;;;;;;;;3.48;100.00;101648.81;5012420;28;1968;-75
2021/12/13 01:20:05;;;;;;;;;;;;;;;3.54;100.00;101653.09;5011934;28;1433;-75
2021/12/13 01:22:45;;;;;;;;;;;;;;;3.56;100.00;101647.66;4994988;28;1322;-75
2021/12/13 01:25:22;;;;;;;;;;;;;;;3.60;100.00;101649.28;5012631;28;971;-74
2021/12/13 01:27:50;;;;;;;;;;;;;;;3.62;100.00;101647.41;5012702;28;700;-74
2021/12/13 01:30:18;;;;;;;;;;;;;;;3.65;100.00;101656.25;5011474;28;1394;-75
2021/12/13 01:32:48;;;;;;;;;;;;;;;3.67;100.00;101653.50;5012749;28;1392;-75
2021/12/13 01:35:16;;;;;;;;;;;;;;;3.69;100.00;101657.00;5011057;28;834;-74
2021/12/13 01:37:48;;;;;;;;;;;;;;;3.73;100.00;101655.06;5012241;28;1973;-74
2021/12/13 01:40:14;;;;;;;;;;;;;;;3.74;100.00;101660.41;5011741;28;1454;-74
2021/12/13 01:42:41;;;;;;;;;;;;;;;3.78;100.00;101659.34;5010717;28;1997;-74
2021/12/13 01:45:10;;;;;;;;;;;;;;;3.80;100.00;101665.53;5012005;28;1023;-74
2021/12/13 01:47:38;;;;;;;;;;;;;;;3.81;100.00;101661.03;5011821;28;792;-74
2021/12/13 01:50:07;;;;;;;;;;;;;;;3.81;100.00;101655.69;5011314;28;1390;-74
2021/12/13 01:52:35;;;;;;;;;;;;;;;3.82;100.00;101655.59;5011768;28;1305;-75
2021/12/13 01:55:04;;;;;;;;;;;;;;;3.83;100.00;101659.16;5012257;28;1002;-75
2021/12/13 01:57:47;;;;;;;;;;;;;;;3.85;100.00;101660.84;5012187;28;1910;-75
2021/12/13 02:00:18;;;;;;;;;;;;;;;3.84;100.00;101656.41;4978059;28;1352;-74
2021/12/13 02:02:46;;;;;;;;;;;;;;;3.89;100.00;101663.41;4996276;28;1293;-74
2021/12/13 02:05:14;;;;;;;;;;;;;;;3.90;100.00;101670.53;4996339;28;888;-75
2021/12/13 02:07:43;;;;;;;;;;;;;;;3.89;100.00;101668.78;4995470;28;1525;-75
2021/12/13 02:10:12;;;;;;;;;;;;;;;3.88;100.00;101667.06;5015522;28;1068;-74
2021/12/13 02:12:42;;;;;;;;;;;;;;;3.90;100.00;101670.53;5015787;28;1338;-75
2021/12/13 02:17:53;;;;;;;;;;;;;;;3.94;100.00;101672.19;5015916;28;1915;-75
2021/12/13 02:20:23;;;;;;;;;;;;;;;3.95;100.00;101672.13;5015378;28;887;-75
2021/12/13 02:22:52;;;;;;;;;;;;;;;3.96;100.00;101676.56;5015185;28;1494;-75
2021/12/13 02:25:21;;;;;;;;;;;;;;;3.97;100.00;101672.09;4981390;28;1363;-74
2021/12/13 02:27:51;;;;;;;;;;;;;;;4.00;100.00;101677.31;5015571;28;967;-75
2021/12/13 02:30:21;;;;;;;;;;;;;;;3.99;100.00;101679.13;5015307;28;971;-75
2021/12/13 02:32:47;;;;;;;;;;;;;;;4.00;100.00;101682.69;5015365;28;1300;-75
2021/12/13 02:35:14;;;;;;;;;;;;;;;4.01;100.00;101679.09;5000374;28;1568;-75
2021/12/13 02:37:43;;;;;;;;;;;;;;;4.02;100.00;101680.81;4997870;28;1970;-75
2021/12/13 02:40:12;;;;;;;;;;;;;;;4.03;100.00;101687.94;4997613;28;1015;-75
2021/12/13 02:42:38;;;;;;;;;;;;;;;4.01;100.00;101679.09;4996944;28;1482;-75
2021/12/13 02:45:12;;;;;;;;;;;;;;;4.02;100.00;101686.19;4997726;28;1018;-75
2021/12/13 02:47:41;;;;;;;;;;;;;;;4.02;100.00;101684.41;4997433;28;1489;-74
2021/12/13 02:50:10;;;;;;;;;;;;;;;4.00;100.00;101683.56;5014827;28;1493;-75
2021/12/13 02:52:39;;;;;;;;;;;;;;;4.00;100.00;101682.69;5015407;28;1318;-74
2021/12/13 02:55:09;;;;;;;;;;;;;;;4.00;100.00;101686.25;5015371;28;896;-75
2021/12/13 02:57:38;;;;;;;;;;;;;;;4.04;100.00;101678.09;4997274;28;1976;-75
2021/12/13 03:00:12;;;;;;;;;;;;;;;4.05;100.00;101678.03;5014572;28;975;-74
2021/12/13 03:02:39;;;;;;;;;;;;;;;4.08;100.00;101685.97;5014779;28;1383;-74
2021/12/13 03:05:08;;;;;;;;;;;;;;;4.09;100.00;101687.72;5014972;28;967;-75
2021/12/13 03:07:36;;;;;;;;;;;;;;;4.10;100.00;101688.59;5014751;28;904;-74
2021/12/13 03:10:08;;;;;;;;;;;;;;;4.08;100.00;101691.34;4996403;28;846;-75
2021/12/13 03:12:34;;;;;;;;;;;;;;;4.08;100.00;101696.72;4997018;28;1310;-75
2021/12/13 03:15:04;;;;;;;;;;;;;;;4.09;100.00;101703.84;5014726;28;1066;-75
2021/12/13 03:17:32;;;;;;;;;;;;;;;4.11;100.00;101707.34;5014624;28;1979;-74
2021/12/13 03:20:16;;;;;;;;;;;;;;;4.09;100.00;101703.84;5014114;28;862;-75
2021/12/13 03:22:53;;;;;;;;;;;;;;;4.13;100.00;101699.22;5014609;28;1287;-74
2021/12/13 03:25:22;;;;;;;;;;;;;;;4.14;100.00;101699.19;5014729;28;947;-75
2021/12/13 03:27:54;;;;;;;;;;;;;;;4.12;100.00;101700.16;5014458;28;918;-75
2021/12/13 03:30:24;;;;;;;;;;;;;;;4.15;100.00;101708.97;5014260;28;871;-74
2021/12/13 03:32:53;;;;;;;;;;;;;;;4.14;100.00;101703.66;5013835;28;1395;-74
2021/12/13 03:35:22;;;;;;;;;;;;;;;4.14;100.00;101701.88;5014408;28;838;-75
2021/12/13 03:37:54;;;;;;;;;;;;;;;4.16;100.00;101699.09;5014100;28;1910;-75
2021/12/13 03:40:21;;;;;;;;;;;;;;;4.15;100.00;101695.53;4996479;28;1022;-75
2021/12/13 03:42:49;;;;;;;;;;;;;;;4.15;100.00;101703.59;5013969;28;1302;-75
2021/12/13 03:45:18;;;;;;;;;;;;;;;4.14;100.00;101700.97;4996627;28;614;-75
2021/12/13 03:47:50;;;;;;;;;;;;;;;4.14;100.00;101704.53;5013400;28;1434;-74
2021/12/13 03:50:18;;;;;;;;;;;;;;;4.15;100.00;101710.78;5014005;28;828;-75
2021/12/13 03:52:46;;;;;;;;;;;;;;;4.17;100.00;101717.84;5013917;28;1305;-75
2021/12/13 03:55:14;;;;;;;;;;;;;;;4.19;100.00;101721.34;5014284;28;699;-75
2021/12/13 03:57:44;;;;;;;;;;;;;;;4.22;100.00;101716.81;5013598;28;1910;-75
2021/12/13 04:00:12;;;;;;;;;;;;;;;4.21;100.00;101717.72;4996158;28;833;-75
2021/12/13 04:02:41;;;;;;;;;;;;;;;4.22;100.00;101722.19;5013692;28;1295;-75
2021/12/13 04:05:10;;;;;;;;;;;;;;;4.22;100.00;101716.81;5013807;28;892;-75
2021/12/13 04:07:38;;;;;;;;;;;;;;;4.19;100.00;101724.03;5013555;28;1382;-75
2021/12/13 04:10:06;;;;;;;;;;;;;;;4.19;100.00;101717.78;5013596;28;987;-75
2021/12/13 04:12:40;;;;;;;;;;;;;;;4.18;100.00;101718.72;5013502;28;1275;-74
2021/12/13 04:15:13;;;;;;;;;;;;;;;4.22;100.00;101725.72;5012598;28;784;-75
2021/12/13 04:17:44;;;;;;;;;;;;;;;4.19;100.00;101724.03;5012748;28;1281;-76
2021/12/13 04:20:13;;;;;;;;;;;;;;;4.20;100.00;101727.63;5013616;28;1977;-75
2021/12/13 04:22:46;;;;;;;;;;;;;;;4.17;100.00;101727.75;5025483;28;1509;-75
2021/12/13 04:25:15;;;;;;;;;;;;;;;4.16;100.00;101729.53;5010324;28;1551;-75
2021/12/13 04:27:44;;;;;;;;;;;;;;;4.18;100.00;101724.09;4995955;28;801;-75
2021/12/13 04:30:16;;;;;;;;;;;;;;;4.20;100.00;101724.94;5012987;28;970;-75
2021/12/13 04:32:44;;;;;;;;;;;;;;;4.18;100.00;101726.78;5012596;28;1376;-74
2021/12/13 04:35:13;;;;;;;;;;;;;;;4.17;100.00;101723.22;5013327;28;1045;-74
2021/12/13 04:37:40;;;;;;;;;;;;;;;4.19;100.00;101725.84;5013164;28;1024;-74
2021/12/13 04:40:09;;;;;;;;;;;;;;;4.16;100.00;101731.38;5011476;28;1914;-74
2021/12/13 04:42:35;;;;;;;;;;;;;;;4.13;100.00;101729.66;5010517;28;1403;-74
2021/12/13 04:45:05;;;;;;;;;;;;;;;4.11;100.00;101725.28;5013006;28;979;-74
2021/12/13 04:47:33;;;;;;;;;;;;;;;4.10;100.00;101737.84;5012643;28;962;-74
2021/12/13 04:50:03;;;;;;;;;;;;;;;4.09;100.00;101736.09;5012824;28;1279;-74
2021/12/13 04:52:32;;;;;;;;;;;;;;;4.09;100.00;101741.47;5011563;28;1421;-74
2021/12/13 04:54:59;;;;;;;;;;;;;;;4.08;100.00;101742.41;5011611;28;1236;-73
2021/12/13 04:57:26;;;;;;;;;;;;;;;4.06;100.00;101736.19;5012294;28;1434;-74
2021/12/13 04:59:54;;;;;;;;;;;;;;;4.02;100.00;101742.63;5012319;28;1911;-74
2021/12/13 05:02:22;;;;;;;;;;;;;;;4.00;100.00;101741.81;4995300;28;1370;-74
2021/12/13 05:04:50;;;;;;;;;;;;;;;4.01;100.00;101746.25;5012414;28;1063;-74
2021/12/13 05:07:18;;;;;;;;;;;;;;;4.05;100.00;101747.00;5012173;28;1532;-73
2021/12/13 05:09:46;;;;;;;;;;;;;;;4.02;100.00;101739.94;5012368;28;768;-73
2021/12/13 05:12:14;;;;;;;;;;;;;;;4.00;100.00;101742.69;5012659;28;1359;-74
2021/12/13 05:14:42;;;;;;;;;;;;;;;4.00;100.00;101741.81;5012437;28;987;-74
2021/12/13 05:17:10;;;;;;;;;;;;;;;4.02;100.00;101750.66;5010603;28;1414;-75
2021/12/13 05:19:38;;;;;;;;;;;;;;;3.98;100.00;101741.88;5012199;28;1910;-74
2021/12/13 05:22:05;;;;;;;;;;;;;;;3.97;100.00;101748.16;5012553;28;1286;-74
2021/12/13 05:24:33;;;;;;;;;;;;;;;3.96;100.00;101746.41;5012373;28;835;-73
2021/12/13 05:27:05;;;;;;;;;;;;;;;3.96;100.00;101748.25;5010273;28;1493;-74
2021/12/13 05:29:32;;;;;;;;;;;;;;;3.97;100.00;101750.00;5011997;28;816;-74
2021/12/13 05:32:00;;;;;;;;;;;;;;;3.98;100.00;101749.03;5012307;28;1273;-73
2021/12/13 05:34:32;;;;;;;;;;;;;;;4.00;100.00;101753.41;4994361;28;900;-74
2021/12/13 05:37:00;;;;;;;;;;;;;;;4.03;100.00;101760.50;5012267;28;935;-73
2021/12/13 05:39:27;;;;;;;;;;;;;;;4.01;100.00;101762.38;5011513;28;1906;-74
2021/12/13 05:41:54;;;;;;;;;;;;;;;4.08;100.00;101760.34;4993510;28;1419;-74
2021/12/13 05:44:25;;;;;;;;;;;;;;;4.10;100.00;101762.03;5011411;28;801;-73
2021/12/13 05:46:51;;;;;;;;;;;;;;;4.15;100.00;101761.84;5011320;28;966;-74
2021/12/13 05:49:20;;;;;;;;;;;;;;;4.19;100.00;101764.34;5005583;28;1419;-74
2021/12/13 05:51:49;;;;;;;;;;;;;;;4.21;100.00;101775.06;5006876;28;1400;-73
2021/12/13 05:54:21;;;;;;;;;;;;;;;4.22;100.00;101775.94;5003978;28;1327;-74
2021/12/13 05:56:49;;;;;;;;;;;;;;;4.18;100.00;101768.00;4992394;28;1384;-73
2021/12/13 05:59:18;;;;;;;;;;;;;;;4.17;100.00;101770.75;4991919;28;1950;-74
2021/12/13 06:01:55;;;;;;;;;;;;;;;4.13;100.00;101774.44;4974418;28;1354;-74
2021/12/13 06:04:24;;;;;;;;;;;;;;;4.12;100.00;101778.09;4985452;28;1490;-73
2021/12/13 06:06:51;;;;;;;;;;;;;;;4.10;100.00;101769.22;4998798;28;1523;-73
2021/12/13 06:09:40;;;;;;;;;;;;;;;4.13;100.00;101782.50;5011329;28;765;-74
2021/12/13 06:12:08;;;;;;;;;;;;;;;4.14;100.00;101779.81;5011224;28;1299;-74
2021/12/13 06:14:35;;;;;;;;;;;;;;;4.16;100.00;101782.44;4999309;28;1407;-74
2021/12/13 06:17:06;;;;;;;;;;;;;;;4.22;100.00;101784.00;5011474;28;801;-74
2021/12/13 06:19:35;;;;;;;;;;;;;;;4.23;100.00;101791.13;5009966;28;1981;-74
2021/12/13 06:22:05;;;;;;;;;;;;;;;4.28;100.00;101794.53;5011032;28;1519;-75
2021/12/13 06:24:32;;;;;;;;;;;;;;;4.32;100.00;101796.16;5007297;28;1477;-73
2021/12/13 06:27:05;;;;;;;;;;;;;;;4.37;100.00;101802.25;4991822;28;731;-75
2021/12/13 06:29:59;;;;;;;;;;;;;;;4.36;100.00;101801.34;4990633;28;888;-75
2021/12/13 06:32:32;;;;;;;;;;;;;;;4.40;100.00;101793.19;4997838;28;2066;-73
2021/12/13 06:34:59;;;;;;;;;;;;;;;4.43;100.00;101795.75;4993177;28;1417;-75
2021/12/13 06:37:27;;;;;;;;;;;;;;;4.43;100.00;101791.25;5007442;28;1150;-75
2021/12/13 06:40:08;;;;;;;;;;;;;;;4.44;100.00;101800.19;5007526;28;1911;-75
2021/12/13 06:42:35;;;;;;;;;;;;;;;4.46;100.00;101803.69;5010555;28;1314;-75
2021/12/13 06:45:01;;;;;;;;;;;;;;;4.46;100.00;101809.97;5010031;28;1474;-74
2021/12/13 06:47:27;;;;;;;;;;;;;;;4.45;100.00;101810.00;4996455;28;975;-74
2021/12/13 06:49:57;;;;;;;;;;;;;;;4.44;100.00;101811.81;4998428;28;1282;-74
2021/12/13 06:52:26;;;;;;;;;;;;;;;4.45;100.00;101808.19;4993496;28;1413;-74
2021/12/13 06:54:55;;;;;;;;;;;;;;;4.47;100.00;101817.06;4991831;28;1531;-74
2021/12/13 06:57:23;;;;;;;;;;;;;;;4.48;100.00;101813.44;4995045;28;1054;-73
2021/12/13 06:59:51;;;;;;;;;;;;;;;4.48;100.00;101818.81;4996349;28;1966;-74
2021/12/13 07:02:22;;;;;;;;;;;;;;;4.48;100.00;101831.41;5011597;28;1543;-73
2021/12/13 07:04:52;;;;;;;;;;;;;;;4.49;100.00;101828.66;5012000;28;1398;-73
2021/12/13 07:07:21;;;;;;;;;;;;;;;4.51;100.00;101829.47;5009864;28;1729;-73
2021/12/13 07:09:52;;;;;;;;;;;;;;;4.50;100.00;101838.50;4994430;28;1218;-75
2021/12/13 07:12:18;;;;;;;;;;;;;;;4.49;100.00;101831.34;5009980;28;1551;-74
2021/12/13 07:14:46;;;;;;;;;;;;;;;4.47;100.00;101838.56;5013416;28;1450;-74
2021/12/13 07:17:15;;;;;;;;;;;;;;;4.45;100.00;101834.19;5012838;28;2062;-75
2021/12/13 07:19:43;;;;;;;;;;;;;;;4.44;100.00;101838.72;5009743;28;1973;-76
2021/12/13 07:22:10;;;;;;;;;;;;;;;4.43;100.00;101836.94;5007961;28;1378;-76
2021/12/13 07:24:42;;;;;;;;;;;;;;;4.45;100.00;101842.25;4989833;28;1538;-76
2021/12/13 07:27:09;;;;;;;;;;;;;;;4.42;100.00;101837.88;5013588;28;1567;-76
2021/12/13 07:29:38;;;;;;;;;;;;;;;4.44;100.00;101844.09;5005430;28;1499;-76
2021/12/13 07:32:06;;;;;;;;;;;;;;;4.46;100.00;101850.28;4978803;28;1453;-76
2021/12/13 07:34:33;;;;;;;;;;;;;;;4.49;100.00;101851.97;4982755;28;1512;-77
2021/12/13 07:37:01;;;;;;;;;;;;;;;4.49;100.00;101865.41;4995194;28;1329;-76
2021/12/13 07:39:29;;;;;;;;;;;;;;;4.44;100.00;101865.59;5007252;28;1910;-76
2021/12/13 07:41:59;;;;;;;;;;;;;;;4.43;100.00;101866.53;5010415;28;2119;-75
2021/12/13 07:44:33;;;;;;;;;;;;;;;4.47;100.00;101873.53;4991915;28;1531;-74
2021/12/13 07:47:01;;;;;;;;;;;;;;;4.50;100.00;101878.81;4995603;28;1292;-76
2021/12/13 07:49:31;;;;;;;;;;;;;;;4.49;100.00;101887.81;4979032;28;1528;-76
2021/12/13 07:52:00;;;;;;;;;;;;;;;4.47;100.00;101873.53;4979254;28;1300;-76
2021/12/13 07:54:27;;;;;;;;;;;;;;;4.50;100.00;101886.00;4990362;28;1464;-76
2021/12/13 07:56:56;;;;;;;;;;;;;;;4.54;100.00;101887.63;4985902;28;1648;-76
2021/12/13 07:59:27;;;;;;;;;;;;;;;4.55;100.00;101880.47;4984956;28;1918;-77
2021/12/13 08:01:56;;;;;;;;;;;;;;;4.52;100.00;101882.31;4970562;28;1357;-75
2021/12/13 08:04:26;;;;;;;;;;;;;;;4.48;100.00;101878.00;4985225;28;1460;-76
2021/12/13 08:06:54;;;;;;;;;;;;;;;4.44;100.00;101879.03;4983098;28;1455;-76
2021/12/13 08:09:22;;;;;;;;;;;;;;;4.43;100.00;101873.72;4996014;28;1369;-75
2021/12/13 08:11:50;;;;;;;;;;;;;;;4.39;100.00;101877.47;5012072;28;1315;-75
2021/12/13 08:14:24;;;;;;;;;;;;;;;4.36;100.00;101875.75;4987966;28;1688;-75
2021/12/13 08:16:52;;;;;;;;;;;;;;;4.34;100.00;101875.81;4982066;28;1234;-75
2021/12/13 08:19:21;;;;;;;;;;;;;;;4.41;100.00;101879.16;4990033;28;1957;-75
2021/12/13 08:21:49;;;;;;;;;;;;;;;4.38;100.00;101881.06;4979504;28;1310;-76
2021/12/13 08:24:21;;;;;;;;;;;;;;;4.39;100.00;101886.41;5009453;28;1324;-75
2021/12/13 08:26:53;;;;;;;;;;;;;;;4.43;100.00;101890.72;4977571;28;1339;-75
2021/12/13 08:29:21;;;;;;;;;;;;;;;4.46;100.00;101887.94;4993456;28;1536;-74
2021/12/13 08:31:51;;;;;;;;;;;;;;;4.42;100.00;101888.97;4976329;28;1516;-75
2021/12/13 08:34:25;;;;;;;;;;;;;;;4.44;100.00;101889.78;4967962;28;1129;-74
2021/12/13 08:36:52;;;;;;;;;;;;;;;4.46;100.00;101889.72;4993532;28;1535;-75
2021/12/13 08:39:20;;;;;;;;;;;;;;;4.46;100.00;101887.03;4995187;28;1967;-75
2021/12/13 08:41:48;;;;;;;;;;;;;;;4.43;100.00;101893.41;5001723;28;1500;-75
2021/12/13 08:44:17;;;;;;;;;;;;;;;4.44;100.00;101895.19;4977719;28;1528;-75
2021/12/13 08:46:47;;;;;;;;;;;;;;;4.45;100.00;101902.31;4968172;28;1330;-75
2021/12/13 08:49:27;;;;;;;;;;;;;;;4.44;100.00;101908.63;5011102;28;1207;-74
2021/12/13 08:51:57;;;;;;;;;;;;;;;4.43;100.00;101906.00;4995155;28;1403;-76
2021/12/13 08:54:33;;;;;;;;;;;;;;;4.39;100.00;101907.91;4978793;28;1533;-76
2021/12/13 08:57:01;;;;;;;;;;;;;;;4.35;100.00;101908.94;4979263;28;1144;-76
2021/12/13 08:59:28;;;;;;;;;;;;;;;4.32;100.00;101903.69;4977515;28;1907;-74
2021/12/13 09:01:56;;;;;;;;;;;;;;;4.30;100.00;101910.91;4971578;28;1458;-76
2021/12/13 09:04:24;;;;;;;;;;;;;;;4.27;100.00;101911.03;4959486;28;1303;-75
2021/12/13 09:06:55;;;;;;;;;;;;;;;4.33;100.00;101910.84;4961313;28;1615;-76
2021/12/13 09:09:22;;;;;;;;;;;;;;;4.33;100.00;101908.16;4959158;28;1495;-76
2021/12/13 09:11:54;;;;;;;;;;;;;;;4.28;100.00;101904.75;4978151;28;1499;-75
2021/12/13 09:14:22;;;;;;;;;;;;;;;4.33;100.00;101903.63;5009759;28;1610;-75
2021/12/13 09:16:55;;;;;;;;;;;;;;;4.34;100.00;101913.47;4974503;28;1540;-75
2021/12/13 09:19:23;;;;;;;;;;;;;;;4.41;100.00;101911.44;4978348;28;1297;-76
2021/12/13 09:21:52;;;;;;;;;;;;;;;4.43;100.00;101914.91;5010922;28;1418;-75
2021/12/13 09:24:25;;;;;;;;;;;;;;;4.48;100.00;101915.63;4981088;28;1281;-74
2021/12/13 09:26:52;;;;;;;;;;;;;;;4.51;100.00;101907.44;4980960;28;1305;-74
2021/12/13 09:29:20;;;;;;;;;;;;;;;4.58;100.00;101910.78;4958673;28;1720;-75
2021/12/13 09:31:51;;;;;;;;;;;;;;;4.57;100.00;101911.75;4985687;28;1471;-76
2021/12/13 09:34:23;;;;;;;;;;;;;;;4.50;100.00;101910.19;4968131;28;1599;-76
2021/12/13 09:36:51;;;;;;;;;;;;;;;4.47;100.00;101905.81;4975660;28;1354;-75
2021/12/13 09:39:22;;;;;;;;;;;;;;;4.46;100.00;101905.88;4979255;28;1477;-76
2021/12/13 09:41:52;;;;;;;;;;;;;;;4.48;100.00;101914.78;4978829;28;2001;-77
2021/12/13 09:44:23;;;;;;;;;;;;;;;4.53;100.00;101913.66;4980820;28;1218;-76
2021/12/13 09:46:52;;;;;;;;;;;;;;;4.64;100.00;101920.47;5001274;28;892;-76
2021/12/13 09:49:23;;;;;;;;;;;;;;;4.69;100.00;101921.16;4976776;28;1169;-75
2021/12/13 09:51:52;;;;;;;;;;;;;;;4.74;100.00;101920.97;4994548;28;1492;-76
2021/12/13 09:54:21;;;;;;;;;;;;;;;4.83;100.00;101926.00;4990566;28;1285;-76
2021/12/13 09:56:51;;;;;;;;;;;;;;;4.90;100.00;101930.22;4975178;28;1428;-76
2021/12/13 09:59:20;;;;;;;;;;;;;;;5.00;100.00;101925.38;4978998;28;1167;-75
2021/12/13 10:01:47;;;;;;;;;;;;;;;5.06;100.00;101925.13;4975412;28;1914;-76
2021/12/13 10:04:24;;;;;;;;;;;;;;;5.11;100.00;101923.13;4961650;28;1520;-77
2021/12/13 10:06:52;;;;;;;;;;;;;;;5.17;100.00;101920.22;4984497;28;1658;-78
2021/12/13 10:09:21;;;;;;;;;;;;;;;5.23;100.00;101918.22;4994056;28;1426;-78
2021/12/13 10:11:52;;;;;;;;;;;;;;;5.27;100.00;101917.16;4990495;28;1431;-77
2021/12/13 10:14:20;;;;;;;;;;;;;;;5.31;100.00;101916.09;4980369;28;1256;-79
2021/12/13 10:16:49;;;;;;;;;;;;;;;5.36;100.00;101914.97;5011700;28;1486;-77
2021/12/13 10:19:16;;;;;;;;;;;;;;;5.41;100.00;101911.19;4995900;28;1364;-78
2021/12/13 10:21:44;;;;;;;;;;;;;;;5.48;100.00;101918.09;4977094;28;1982;-76
2021/12/13 10:24:15;;;;;;;;;;;;;;;5.53;100.00;101914.28;4973512;28;1696;-77
2021/12/13 10:26:42;;;;;;;;;;;;;;;5.66;100.00;101916.44;4976826;28;1792;-76
2021/12/13 10:29:11;;;;;;;;;;;;;;;5.72;100.00;101908.13;4990480;28;1243;-77
2021/12/13 10:31:40;;;;;;;;;;;;;;;5.80;100.00;101908.69;5003154;28;1495;-77
2021/12/13 10:34:08;;;;;;;;;;;;;;;5.86;100.00;101903.00;4964345;28;1174;-76
2021/12/13 10:36:36;;;;;;;;;;;;;;;5.97;100.00;101904.38;4984838;28;1498;-77
2021/12/13 10:39:07;;;;;;;;;;;;;;;6.02;100.00;101905.09;4976187;28;1567;-77
2021/12/13 10:41:36;;;;;;;;;;;;;;;6.00;100.00;101904.28;4983529;28;1990;-77
2021/12/13 10:44:05;;;;;;;;;;;;;;;6.01;100.00;101903.31;4979106;28;1753;-76
2021/12/13 10:46:35;;;;;;;;;;;;;;;6.17;100.00;101907.13;4969014;28;1652;-76
2021/12/13 10:49:05;;;;;;;;;;;;;;;6.26;100.00;101900.44;4998639;28;1278;-78
2021/12/13 10:51:33;;;;;;;;;;;;;;;6.38;100.00;101893.63;4996851;28;1310;-77
2021/12/13 10:54:01;;;;;;;;;;;;;;;6.45;100.00;101892.38;5013783;28;922;-77
2021/12/13 10:56:29;;;;;;;;;;;;;;;6.46;100.00;101890.59;4996796;28;1252;-78
2021/12/13 10:58:58;;;;;;;;;;;;;;;6.51;100.00;101893.94;4997208;28;1151;-78
2021/12/13 11:01:29;;;;;;;;;;;;;;;6.56;100.00;101891.03;5023518;28;1981;-76
2021/12/13 11:04:00;;;;;;;;;;;;;;;6.59;100.00;101896.28;4996908;28;1181;-77
2021/12/13 11:06:27;;;;;;;;;;;;;;;6.54;100.00;101888.41;5029397;28;1321;-76
2021/12/13 11:08:53;;;;;;;;;;;;;;;6.58;100.00;101897.25;4974878;28;1442;-74
2021/12/13 11:11:22;;;;;;;;;;;;;;;6.63;100.00;101892.50;4962016;28;1549;-75
2021/12/13 11:13:51;;;;;;;;;;;;;;;6.63;100.00;101895.22;4980511;28;1553;-77
2021/12/13 11:16:19;;;;;;;;;;;;;;;6.66;100.00;101903.16;4969750;28;1572;-76
2021/12/13 11:18:45;;;;;;;;;;;;;;;6.65;100.00;101904.09;5009763;28;1495;-75
2021/12/13 11:21:15;;;;;;;;;;;;;;;6.67;100.00;101899.53;4977738;28;2248;-75
2021/12/13 11:23:42;;;;;;;;;;;;;;;6.69;100.00;101900.31;4992829;28;1478;-77
2021/12/13 11:26:10;;;;;;;;;;;;;;;6.73;100.00;101899.22;4971342;28;1551;-77
2021/12/13 11:28:38;;;;;;;;;;;;;;;6.76;100.00;101904.50;4979887;28;1345;-77
2021/12/13 11:31:11;;;;;;;;;;;;;;;6.76;100.00;101904.50;4995466;28;1190;-77
2021/12/13 11:33:56;;;;;;;;;;;;;;;6.82;100.00;101906.03;4991484;28;1544;-77
2021/12/13 11:36:32;;;;;;;;;;;;;;;6.84;100.00;101912.22;4994171;28;1349;-76
2021/12/13 11:39:09;;;;;;;;;;;;;;;6.85;100.00;101908.56;4960665;28;1607;-76
2021/12/13 11:41:52;;;;;;;;;;;;;;;6.86;100.00;101904.94;4975942;28;1906;-76
2021/12/13 11:44:25;;;;;;;;;;;;;;;6.85;100.00;101908.56;4970361;28;1254;-76
2021/12/13 11:47:12;;;;;;;;;;;;;;;6.90;100.00;101901.13;5007028;28;1258;-76
2021/12/13 11:49:44;;;;;;;;;;;;;;;7.00;100.00;101907.84;4985675;28;1377;-76
2021/12/13 11:52:24;;;;;;;;;;;;;;;7.03;100.00;101907.69;4992555;28;1369;-76
2021/12/13 11:55:09;;;;;;;;;;;;;;;7.01;100.00;101900.63;4963781;28;1496;-76
2021/12/13 11:57:55;;;;;;;;;;;;;;;7.01;100.00;101906.03;4984281;28;1535;-76
2021/12/13 12:00:44;;;;;;;;;;;;;;;7.06;100.00;101905.81;5010389;28;1922;-76
2021/12/13 12:03:44;;;;;;;;;;;;;;;7.10;100.00;101902.88;4975015;28;1476;-76
2021/12/13 12:06:25;;;;;;;;;;;;;;;7.15;100.00;101906.25;4979440;28;1341;-76
2021/12/13 12:09:12;;;;;;;;;;;;;;;7.10;100.00;101902.03;4990653;28;1517;-76
2021/12/13 12:11:56;;;;;;;;;;;;;;;7.10;100.00;101902.03;4972217;28;1520;-76
2021/12/13 12:14:28;;;;;;;;;;;;;;;7.12;100.00;101902.81;4987558;28;1204;-76
2021/12/13 12:16:56;;;;;;;;;;;;;;;7.06;100.00;101901.28;4990975;28;1524;-76
2021/12/13 12:19:23;;;;;;;;;;;;;;;7.13;100.00;101902.72;4964044;28;1547;-76
2021/12/13 12:21:54;;;;;;;;;;;;;;;7.11;100.00;101896.53;4962252;28;1903;-76
2021/12/13 12:24:24;;;;;;;;;;;;;;;7.15;100.00;101899.97;4988687;28;1315;-75
2021/12/13 12:26:52;;;;;;;;;;;;;;;7.19;100.00;101897.03;4976914;28;1560;-75
2021/12/13 12:29:20;;;;;;;;;;;;;;;7.24;100.00;101898.66;4972500;28;1492;-75
2021/12/13 12:31:49;;;;;;;;;;;;;;;7.27;100.00;101898.47;4974677;28;1373;-75
2021/12/13 12:34:15;;;;;;;;;;;;;;;7.26;100.00;101905.72;4963653;28;1607;-74
2021/12/13 12:36:48;;;;;;;;;;;;;;;7.31;100.00;101908.19;4992665;28;1290;-74
2021/12/13 12:39:33;;;;;;;;;;;;;;;7.34;100.00;101905.34;4976976;28;1368;-74
2021/12/13 12:42:03;;;;;;;;;;;;;;;7.43;100.00;101902.22;4972390;28;1919;-73
2021/12/13 12:44:32;;;;;;;;;;;;;;;7.48;100.00;101904.66;5002213;28;971;-75
2021/12/13 12:46:58;;;;;;;;;;;;;;;7.51;100.00;101905.41;4975609;28;1164;-74
2021/12/13 12:49:26;;;;;;;;;;;;;;;7.51;100.00;101902.69;4960699;28;1543;-73
2021/12/13 12:51:53;;;;;;;;;;;;;;;7.49;100.00;101909.13;4978441;28;1510;-75
2021/12/13 12:54:21;;;;;;;;;;;;;;;7.47;100.00;101906.50;4972293;28;1504;-75
2021/12/13 12:56:50;;;;;;;;;;;;;;;7.46;100.00;101903.88;4993976;28;1512;-77
2021/12/13 12:59:20;;;;;;;;;;;;;;;7.46;100.00;101907.44;4978420;28;1287;-78
2021/12/13 13:01:47;;;;;;;;;;;;;;;7.49;100.00;101906.44;4980427;28;1977;-72
2021/12/13 13:04:16;;;;;;;;;;;;;;;7.51;100.00;101908.09;5015658;23;3492;-74
2021/12/13 13:07:04;;;;;;;;;;;;;;;7.51;100.00;101905.41;5030685;28;1527;-74